Time;durP1;ratioP1;P1;durP2;ratioP2;P2;SDS_P1;SDS_P2;PMS_P1;PMS_P2;Temp;Humidity;BMP_temperature;BMP_pressure;BME280_temperature;BME280_humidity;BME280_pressure;Samples;Min_cycle;Max_cycle;Signal;HPM_P1;HPM_P2
2021/12/06 00:01:05;;;;;;;20.33;8.27;;;5.00;99.90;;;;;;6212397;23;20016;-61
2021/12/06 00:03:50;;;;;;;23.02;8.85;;;4.90;99.90;;;;;;6210966;23;20067;-62
2021/12/06 00:06:18;;;;;;;18.85;8.98;;;4.90;99.90;;;;;;6209267;23;20013;-63
2021/12/06 00:08:44;;;;;;;17.63;8.20;;;4.90;99.90;;;;;;6212169;23;20235;-61
2021/12/06 00:11:11;;;;;;;22.38;9.85;;;4.90;99.90;;;;;;6211840;23;20459;-62
2021/12/06 00:13:42;;;;;;;19.02;8.60;;;4.80;99.90;;;;;;6209317;23;20021;-62
2021/12/06 00:16:13;;;;;;;22.77;9.50;;;4.80;99.90;;;;;;6211719;23;20017;-62
2021/12/06 00:18:38;;;;;;;;;;;4.80;99.90;;;;;;6212036;23;20079;-62
2021/12/06 00:21:05;;;;;;;17.30;9.05;;;4.80;99.90;;;;;;6209996;23;20283;-62
2021/12/06 00:23:31;;;;;;;18.20;8.02;;;4.80;99.90;;;;;;6211155;23;20625;-62
2021/12/06 00:25:58;;;;;;;18.20;8.80;;;4.80;99.90;;;;;;6211231;23;20071;-62
2021/12/06 00:28:24;;;;;;;18.17;8.70;;;4.80;99.90;;;;;;6210472;23;20409;-61
2021/12/06 00:30:51;;;;;;;19.15;7.80;;;4.80;99.90;;;;;;6211950;23;20016;-63
2021/12/06 00:33:16;;;;;;;17.67;8.15;;;4.80;99.90;;;;;;6210613;23;20496;-63
2021/12/06 00:35:42;;;;;;;15.82;8.23;;;4.80;99.90;;;;;;6211457;23;20012;-62
2021/12/06 00:38:08;;;;;;;19.05;8.57;;;4.80;99.90;;;;;;6209899;23;20070;-62
2021/12/06 00:40:37;;;;;;;16.55;8.20;;;4.80;99.90;;;;;;6210403;23;20009;-62
2021/12/06 00:43:05;;;;;;;16.17;8.07;;;4.90;99.90;;;;;;6209928;23;20020;-62
2021/12/06 00:45:32;;;;;;;14.57;7.60;;;4.90;99.90;;;;;;6210294;23;20020;-62
2021/12/06 00:47:58;;;;;;;16.02;8.05;;;4.90;99.90;;;;;;6211803;23;20088;-62
2021/12/06 00:50:27;;;;;;;16.10;7.45;;;5.00;99.90;;;;;;6210080;23;20051;-62
2021/12/06 00:52:53;;;;;;;17.88;8.38;;;4.90;99.90;;;;;;6211536;23;20009;-62
2021/12/06 00:55:21;;;;;;;17.40;7.40;;;4.90;99.90;;;;;;6209990;23;20028;-62
2021/12/06 00:57:49;;;;;;;15.88;8.05;;;4.90;99.90;;;;;;6211680;23;20091;-62
2021/12/06 01:00:21;;;;;;;20.30;9.10;;;4.90;99.90;;;;;;6208727;23;20016;-62
2021/12/06 01:02:47;;;;;;;15.05;7.75;;;4.90;99.90;;;;;;6211641;23;20013;-62
2021/12/06 01:05:12;;;;;;;18.23;8.40;;;4.90;99.90;;;;;;6209066;23;20019;-63
2021/12/06 01:07:39;;;;;;;17.77;8.15;;;4.90;99.90;;;;;;6211071;23;20008;-63
2021/12/06 01:10:07;;;;;;;17.35;8.30;;;4.80;99.90;;;;;;6209268;23;20360;-62
2021/12/06 01:12:33;;;;;;;18.90;8.05;;;4.90;99.90;;;;;;6208536;23;20012;-62
2021/12/06 01:14:59;;;;;;;20.50;8.50;;;4.90;99.90;;;;;;6211245;23;20013;-61
2021/12/06 01:17:25;;;;;;;16.73;8.00;;;4.90;99.90;;;;;;6210290;23;20021;-62
2021/12/06 01:19:51;;;;;;;19.27;8.27;;;5.00;99.90;;;;;;6211347;23;20068;-62
2021/12/06 01:22:24;;;;;;;22.17;7.78;;;5.00;99.90;;;;;;6210289;23;20017;-62
2021/12/06 01:25:01;;;;;;;17.25;8.07;;;5.00;99.90;;;;;;6211105;23;20382;-63
2021/12/06 01:28:15;;;;;;;20.30;9.32;;;4.90;99.90;;;;;;6210074;23;20016;-61
2021/12/06 01:30:47;;;;;;;23.88;9.43;;;4.90;99.90;;;;;;6209411;23;20246;-63
2021/12/06 01:33:30;;;;;;;24.13;10.10;;;4.90;99.90;;;;;;6211072;23;20020;-61
2021/12/06 01:41:20;;;;;;;21.38;10.25;;;5.00;99.90;;;;;;6209885;23;20075;-62
2021/12/06 01:44:21;;;;;;;23.30;9.73;;;5.00;99.90;;;;;;6210984;23;20048;-62
2021/12/06 01:46:52;;;;;;;29.10;12.38;;;5.00;99.90;;;;;;6147246;23;20041;-62
2021/12/06 01:49:21;;;;;;;22.10;9.45;;;5.00;99.90;;;;;;6218167;23;20036;-62
2021/12/06 01:51:48;;;;;;;22.85;10.10;;;5.10;99.90;;;;;;6211195;23;20444;-63
2021/12/06 01:54:16;;;;;;;21.70;9.90;;;5.10;99.90;;;;;;6209982;23;20051;-63
2021/12/06 01:56:42;;;;;;;20.85;9.45;;;5.10;99.90;;;;;;6211164;23;20073;-63
2021/12/06 01:59:09;;;;;;;21.77;10.10;;;5.10;99.90;;;;;;6211231;23;20427;-62
2021/12/06 02:01:35;;;;;;;22.35;9.65;;;5.10;99.90;;;;;;6209811;23;20020;-63
2021/12/06 02:04:01;;;;;;;21.45;9.02;;;5.10;99.90;;;;;;6210730;23;20008;-62
2021/12/06 02:06:27;;;;;;;21.85;8.43;;;5.00;99.90;;;;;;6209254;23;20008;-62
2021/12/06 02:08:53;;;;;;;23.27;9.65;;;5.10;99.90;;;;;;6211405;23;20427;-62
2021/12/06 02:11:22;;;;;;;22.45;10.00;;;5.10;99.90;;;;;;6209885;23;20009;-63
2021/12/06 02:13:55;;;;;;;20.08;9.52;;;5.10;99.90;;;;;;6209322;23;20466;-62
2021/12/06 02:16:30;;;;;;;24.83;10.23;;;5.10;99.90;;;;;;6209579;23;20020;-62
2021/12/06 02:19:02;;;;;;;23.65;10.55;;;5.10;99.90;;;;;;6209501;23;20104;-62
2021/12/06 02:21:32;;;;;;;24.02;10.32;;;5.10;99.90;;;;;;6209427;23;20016;-63
2021/12/06 02:24:00;;;;;;;25.85;10.38;;;5.20;99.90;;;;;;6210997;23;20061;-62
2021/12/06 02:26:26;;;;;;;20.73;10.52;;;5.20;99.90;;;;;;6209720;23;20009;-62
2021/12/06 02:28:52;;;;;;;22.98;10.50;;;5.20;99.90;;;;;;6210753;23;20013;-63
2021/12/06 02:31:22;;;;;;;28.42;10.75;;;5.20;99.90;;;;;;6209685;23;20020;-64
2021/12/06 02:33:49;;;;;;;28.23;12.17;;;5.20;99.90;;;;;;6209311;23;20017;-62
2021/12/06 02:36:16;;;;;;;29.00;11.98;;;5.20;99.90;;;;;;6209582;23;20016;-62
2021/12/06 02:38:42;;;;;;;25.30;10.85;;;5.30;99.90;;;;;;6210506;23;20027;-62
2021/12/06 02:41:09;;;;;;;24.38;10.77;;;5.30;99.90;;;;;;6210636;23;20005;-62
2021/12/06 02:43:36;;;;;;;24.48;9.85;;;5.20;99.90;;;;;;6209486;23;20020;-62
2021/12/06 02:46:03;;;;;;;28.38;12.30;;;5.30;99.90;;;;;;6210640;23;20015;-64
2021/12/06 02:48:28;;;;;;;34.10;11.75;;;5.20;99.90;;;;;;6207936;23;20012;-63
2021/12/06 02:50:57;;;;;;;32.92;11.05;;;5.30;99.90;;;;;;6210418;23;20111;-63
2021/12/06 02:53:25;;;;;;;25.33;10.98;;;5.30;99.90;;;;;;6207498;23;20435;-63
2021/12/06 02:55:54;;;;;;;27.40;11.73;;;5.20;99.90;;;;;;6210379;23;20451;-62
2021/12/06 02:59:11;;;;;;;32.22;11.38;;;5.30;99.90;;;;;;6207711;23;20443;-63
2021/12/06 03:01:23;;;;;;;30.15;11.32;;;5.30;99.90;;;;;;6205745;23;20036;-63
2021/12/06 03:03:49;;;;;;;28.70;10.80;;;5.30;99.90;;;;;;6210474;23;20040;-62
2021/12/06 03:06:17;;;;;;;32.28;11.98;;;5.30;99.90;;;;;;6209762;23;20013;-63
2021/12/06 03:08:46;;;;;;;33.03;12.75;;;5.30;99.90;;;;;;6209878;23;20037;-62
2021/12/06 03:11:17;;;;;;;27.67;10.88;;;5.30;99.90;;;;;;6209345;23;20038;-62
2021/12/06 03:13:43;;;;;;;;;;;5.30;99.90;;;;;;6208447;23;20386;-64
2021/12/06 03:16:09;;;;;;;26.10;10.65;;;5.30;99.90;;;;;;6209300;23;19912;-62
2021/12/06 03:18:35;;;;;;;29.77;12.43;;;5.30;99.90;;;;;;6208769;23;20019;-62
2021/12/06 03:21:01;;;;;;;26.42;10.60;;;5.30;99.90;;;;;;6210335;23;20051;-62
2021/12/06 03:23:27;;;;;;;31.08;11.65;;;5.20;99.90;;;;;;6209476;23;20047;-62
2021/12/06 03:25:53;;;;;;;25.13;11.13;;;5.20;99.90;;;;;;6210125;23;20013;-62
2021/12/06 03:28:18;;;;;;;30.30;11.45;;;5.20;99.90;;;;;;6209097;23;20500;-62
2021/12/06 03:30:45;;;;;;;25.23;10.40;;;5.20;99.90;;;;;;6210683;23;20019;-63
2021/12/06 03:33:10;;;;;;;27.52;11.68;;;5.10;99.90;;;;;;6208670;23;20059;-63
2021/12/06 03:35:37;;;;;;;30.67;11.60;;;5.10;99.90;;;;;;6209338;23;20435;-62
2021/12/06 03:38:02;;;;;;;31.88;11.55;;;5.10;99.90;;;;;;6210288;23;20084;-64
2021/12/06 03:40:28;;;;;;;30.95;12.95;;;5.10;99.90;;;;;;6207311;23;20044;-63
2021/12/06 03:42:54;;;;;;;31.75;12.93;;;5.10;99.90;;;;;;6209699;23;20017;-62
2021/12/06 03:45:19;;;;;;;27.08;11.35;;;5.20;99.90;;;;;;6207311;23;20031;-63
2021/12/06 03:47:45;;;;;;;29.02;11.27;;;5.20;99.90;;;;;;6210213;23;20047;-62
2021/12/06 03:50:12;;;;;;;30.15;12.48;;;5.20;99.90;;;;;;6210135;23;20343;-64
2021/12/06 03:52:38;;;;;;;28.00;10.95;;;5.30;99.90;;;;;;6208790;23;20004;-64
2021/12/06 03:55:06;;;;;;;28.80;12.05;;;5.20;99.90;;;;;;6210104;23;20020;-62
2021/12/06 03:57:32;;;;;;;25.65;11.40;;;5.30;99.90;;;;;;6207232;23;20069;-62
2021/12/06 03:59:58;;;;;;;28.25;11.45;;;5.30;99.90;;;;;;6209871;23;20502;-62
2021/12/06 04:02:28;;;;;;;26.27;11.27;;;5.30;99.90;;;;;;6209185;23;20017;-63
2021/12/06 04:04:54;;;;;;;27.70;12.00;;;5.20;99.90;;;;;;6210167;23;20343;-62
2021/12/06 04:07:20;;;;;;;25.45;11.52;;;5.20;99.90;;;;;;6209049;23;20016;-63
2021/12/06 04:09:46;;;;;;;32.67;12.68;;;5.20;99.90;;;;;;6210086;23;20530;-62
2021/12/06 04:12:12;;;;;;;29.00;11.90;;;5.10;99.90;;;;;;6209977;23;20013;-62
2021/12/06 04:14:39;;;;;;;35.08;12.10;;;5.10;99.90;;;;;;6208998;23;20717;-63
2021/12/06 04:17:05;;;;;;;28.38;11.32;;;5.00;99.90;;;;;;6208065;23;20329;-64
2021/12/06 04:19:31;;;;;;;28.42;11.95;;;5.00;99.90;;;;;;6209124;23;20431;-62
2021/12/06 04:21:57;;;;;;;25.50;11.55;;;5.00;99.90;;;;;;6209020;23;20012;-64
2021/12/06 04:24:23;;;;;;;28.70;11.95;;;5.00;99.90;;;;;;6207264;23;20037;-63
2021/12/06 04:26:49;;;;;;;26.50;10.63;;;5.00;99.90;;;;;;6210053;23;20009;-62
2021/12/06 04:29:16;;;;;;;29.52;11.80;;;5.00;99.90;;;;;;6208942;23;20507;-62
2021/12/06 04:31:45;;;;;;;28.60;11.93;;;5.10;99.90;;;;;;6209998;23;20009;-62
2021/12/06 04:34:12;;;;;;;24.25;11.52;;;5.20;99.90;;;;;;6207533;23;20032;-63
2021/12/06 04:36:39;;;;;;;28.40;10.75;;;5.10;99.90;;;;;;6208284;23;20012;-62
2021/12/06 04:39:07;;;;;;;23.15;10.60;;;5.10;99.90;;;;;;6208157;23;20039;-63
2021/12/06 04:41:33;;;;;;;26.23;10.23;;;5.20;99.90;;;;;;6208812;23;20013;-62
2021/12/06 04:43:58;;;;;;;27.35;12.23;;;5.10;99.90;;;;;;6211194;23;20051;-62
2021/12/06 04:46:24;;;;;;;29.35;11.07;;;5.10;99.90;;;;;;6208783;23;20184;-62
2021/12/06 04:48:50;;;;;;;32.45;10.88;;;5.10;99.90;;;;;;6209970;23;20019;-63
2021/12/06 04:51:15;;;;;;;31.10;12.90;;;5.10;99.90;;;;;;6208635;23;20103;-64
2021/12/06 04:53:42;;;;;;;27.48;11.30;;;5.20;99.90;;;;;;6211629;23;20013;-62
2021/12/06 04:56:16;;;;;;;30.77;11.35;;;5.10;99.90;;;;;;6209678;23;20331;-63
2021/12/06 04:59:07;;;;;;;28.88;11.40;;;5.10;99.90;;;;;;6211007;23;20017;-63
2021/12/06 05:01:34;;;;;;;27.60;11.02;;;5.20;99.90;;;;;;6210269;23;20394;-63
2021/12/06 05:04:14;;;;;;;27.95;11.27;;;5.10;99.90;;;;;;6211620;23;20012;-62
2021/12/06 05:06:43;;;;;;;25.50;11.13;;;5.10;99.90;;;;;;6210899;23;20439;-62
2021/12/06 05:09:15;;;;;;;32.42;12.10;;;5.10;99.90;;;;;;6211605;23;20012;-62
2021/12/06 05:11:41;;;;;;;25.08;9.82;;;5.10;99.90;;;;;;6209728;23;20454;-62
2021/12/06 05:14:07;;;;;;;26.83;11.00;;;5.10;99.90;;;;;;6211411;23;20036;-63
2021/12/06 05:16:35;;;;;;;23.83;9.95;;;5.10;99.90;;;;;;6210388;23;20020;-63
2021/12/06 05:19:01;;;;;;;26.08;10.60;;;5.10;99.90;;;;;;6211315;23;20008;-64
2021/12/06 05:21:27;;;;;;;26.05;10.95;;;5.10;99.90;;;;;;6208644;23;20066;-62
2021/12/06 05:23:52;;;;;;;38.85;12.50;;;5.10;99.90;;;;;;6211444;23;20451;-63
2021/12/06 05:26:18;;;;;;;23.10;9.32;;;5.10;99.90;;;;;;6210411;23;20024;-63
2021/12/06 05:28:46;;;;;;;26.38;11.05;;;5.10;99.90;;;;;;6211213;23;20009;-62
2021/12/06 05:31:19;;;;;;;28.45;10.15;;;5.00;99.90;;;;;;6210457;23;20143;-62
2021/12/06 05:33:51;;;;;;;32.97;11.75;;;5.00;99.90;;;;;;6210247;23;20052;-61
2021/12/06 05:36:18;;;;;;;23.70;10.85;;;5.10;99.90;;;;;;6210003;23;20020;-62
2021/12/06 05:38:43;;;;;;;28.55;10.35;;;5.00;99.90;;;;;;6211178;23;20012;-63
2021/12/06 05:41:09;;;;;;;25.73;11.10;;;5.00;99.90;;;;;;6210832;23;20016;-63
2021/12/06 05:43:35;;;;;;;29.02;11.95;;;5.00;99.90;;;;;;6209758;23;20300;-64
2021/12/06 05:46:01;;;;;;;25.55;9.82;;;5.00;99.90;;;;;;6211080;23;20091;-64
2021/12/06 05:48:27;;;;;;;26.60;10.70;;;4.90;99.90;;;;;;6209760;23;20034;-62
2021/12/06 05:50:53;;;;;;;31.92;10.57;;;4.90;99.90;;;;;;6210892;23;20024;-62
2021/12/06 05:53:18;;;;;;;27.08;10.68;;;4.90;99.90;;;;;;6210001;23;20015;-62
2021/12/06 05:55:46;;;;;;;26.67;10.90;;;4.90;99.90;;;;;;6210131;23;20008;-62
2021/12/06 05:58:14;;;;;;;28.35;11.02;;;4.90;99.90;;;;;;6210996;23;20012;-63
2021/12/06 06:00:42;;;;;;;29.10;10.23;;;4.90;99.90;;;;;;6210379;23;20015;-63
2021/12/06 06:03:08;;;;;;;30.00;10.88;;;4.90;99.90;;;;;;6210040;23;20467;-62
2021/12/06 06:05:35;;;;;;;27.17;11.18;;;4.90;99.90;;;;;;6204993;23;20390;-64
2021/12/06 06:08:02;;;;;;;28.98;11.65;;;4.80;99.90;;;;;;6206461;23;20352;-64
2021/12/06 06:10:31;;;;;;;28.05;12.05;;;4.80;99.90;;;;;;6206479;23;20015;-62
2021/12/06 06:12:57;;;;;;;29.83;11.18;;;4.80;99.90;;;;;;6208125;23;20064;-63
2021/12/06 06:15:23;;;;;;;25.23;11.13;;;4.70;99.90;;;;;;6204849;23;20027;-62
2021/12/06 06:17:49;;;;;;;28.98;10.57;;;4.70;99.90;;;;;;6207951;23;20005;-61
2021/12/06 06:20:22;;;;;;;28.58;10.57;;;4.80;99.90;;;;;;6205286;23;20104;-64
2021/12/06 06:22:48;;;;;;;27.52;10.93;;;4.80;99.90;;;;;;6206265;23;20011;-62
2021/12/06 06:25:15;;;;;;;31.70;11.70;;;4.70;99.90;;;;;;6208066;23;20477;-62
2021/12/06 06:27:42;;;;;;;29.58;13.20;;;4.70;99.90;;;;;;6207281;23;20036;-62
2021/12/06 06:30:09;;;;;;;27.50;11.38;;;4.80;99.90;;;;;;6206454;23;20012;-62
2021/12/06 06:32:34;;;;;;;27.63;12.02;;;4.70;99.90;;;;;;6205027;23;20027;-64
2021/12/06 06:35:00;;;;;;;31.70;11.23;;;4.80;99.90;;;;;;6207719;23;20096;-62
2021/12/06 06:37:26;;;;;;;24.83;12.07;;;4.80;99.90;;;;;;6206671;23;20004;-63
2021/12/06 06:39:51;;;;;;;26.58;11.32;;;4.80;99.90;;;;;;6207916;23;20339;-63
2021/12/06 06:42:17;;;;;;;32.63;11.45;;;4.80;99.90;;;;;;6206922;23;20004;-62
2021/12/06 06:44:43;;;;;;;31.23;11.63;;;4.80;99.90;;;;;;6207923;23;20009;-63
2021/12/06 06:47:08;;;;;;;30.90;12.77;;;4.80;99.90;;;;;;6207877;23;20016;-63
2021/12/06 06:49:34;;;;;;;26.77;11.13;;;4.80;99.90;;;;;;6206492;23;20470;-63
2021/12/06 06:52:01;;;;;;;34.33;11.93;;;4.80;99.90;;;;;;6207810;23;20020;-62
2021/12/06 06:54:26;;;;;;;31.40;12.77;;;4.80;99.90;;;;;;6206612;23;20466;-62
2021/12/06 06:56:52;;;;;;;30.13;12.77;;;4.80;99.90;;;;;;6207829;23;20012;-62
2021/12/06 06:59:18;;;;;;;27.35;11.02;;;4.80;99.90;;;;;;6207015;23;20011;-62
2021/12/06 07:01:45;;;;;;;28.08;13.68;;;4.80;99.90;;;;;;6207575;23;20427;-62
2021/12/06 07:04:12;;;;;;;28.83;11.93;;;4.90;99.90;;;;;;6207832;23;20020;-63
2021/12/06 07:06:38;;;;;;;36.40;12.10;;;4.90;99.90;;;;;;6206066;23;20009;-62
2021/12/06 07:09:06;;;;;;;27.85;12.25;;;4.80;99.90;;;;;;6206356;23;20790;-64
2021/12/06 07:11:32;;;;;;;27.98;11.35;;;4.70;99.90;;;;;;6206413;23;20028;-62
2021/12/06 07:13:58;;;;;;;27.95;11.13;;;4.80;99.90;;;;;;6205745;23;20094;-62
2021/12/06 07:16:25;;;;;;;30.67;12.38;;;4.70;99.90;;;;;;6206688;23;20028;-62
2021/12/06 07:18:51;;;;;;;27.48;11.80;;;4.80;99.90;;;;;;6205600;23;20035;-61
2021/12/06 07:21:18;;;;;;;26.80;10.85;;;4.80;99.90;;;;;;6206843;23;20077;-62
2021/12/06 07:23:44;;;;;;;28.45;11.93;;;4.80;99.90;;;;;;6205206;23;20044;-61
2021/12/06 07:26:13;;;;;;;26.10;10.68;;;4.80;99.90;;;;;;6207640;23;20016;-62
2021/12/06 07:28:40;;;;;;;29.00;11.75;;;4.80;99.90;;;;;;6207175;23;20004;-62
2021/12/06 07:31:06;;;;;;;32.50;12.93;;;4.90;99.90;;;;;;6207489;23;20050;-63
2021/12/06 07:33:35;;;;;;;28.50;11.95;;;4.80;99.90;;;;;;6206234;23;20013;-62
2021/12/06 07:36:02;;;;;;;28.98;11.85;;;4.80;99.90;;;;;;6207504;23;20552;-62
2021/12/06 07:38:30;;;;;;;31.38;13.07;;;4.80;99.90;;;;;;6206201;23;20016;-62
2021/12/06 07:40:57;;;;;;;29.02;12.25;;;4.80;99.90;;;;;;6207642;23;20016;-63
2021/12/06 07:43:23;;;;;;;28.88;12.00;;;4.80;99.90;;;;;;6204897;23;20016;-63
2021/12/06 07:45:48;;;;;;;26.73;11.70;;;4.80;99.90;;;;;;6208065;23;20016;-64
2021/12/06 07:48:15;;;;;;;29.83;10.75;;;4.80;99.90;;;;;;6207281;23;20017;-62
2021/12/06 07:50:40;;;;;;;30.35;11.25;;;4.80;99.90;;;;;;6206387;23;20451;-62
2021/12/06 07:53:06;;;;;;;28.77;11.07;;;4.80;99.90;;;;;;6208178;23;20158;-62
2021/12/06 07:55:34;;;;;;;28.90;11.45;;;4.80;99.90;;;;;;6205947;23;20059;-62
2021/12/06 07:58:01;;;;;;;32.42;12.65;;;4.80;99.90;;;;;;6206067;23;20009;-62
2021/12/06 08:00:29;;;;;;;36.63;12.50;;;4.80;99.90;;;;;;6206057;23;20013;-62
2021/12/06 08:02:54;;;;;;;31.38;12.45;;;4.70;99.90;;;;;;6206958;23;20016;-62
2021/12/06 08:05:35;;;;;;;33.88;13.32;;;4.70;99.90;;;;;;6204670;23;20052;-61
2021/12/06 08:08:11;;;;;;;30.08;11.82;;;4.80;99.90;;;;;;6207211;23;20017;-62
2021/12/06 08:10:40;;;;;;;29.90;12.35;;;4.80;99.90;;;;;;6206327;23;20004;-62
2021/12/06 08:13:06;;;;;;;26.00;11.88;;;4.80;99.90;;;;;;6206999;23;20488;-62
2021/12/06 08:15:33;;;;;;;30.42;13.90;;;4.70;99.90;;;;;;6206376;23;20070;-63
2021/12/06 08:17:59;;;;;;;39.90;14.27;;;4.70;99.90;;;;;;6207731;23;20017;-62
2021/12/06 08:20:24;;;;;;;32.03;13.85;;;4.70;99.90;;;;;;6208136;23;20025;-62
2021/12/06 08:22:50;;;;;;;36.53;14.35;;;4.70;99.90;;;;;;6208838;23;20012;-62
2021/12/06 08:25:17;;;;;;;38.33;14.20;;;4.70;99.90;;;;;;6206821;23;20016;-62
2021/12/06 08:27:44;;;;;;;37.40;14.93;;;4.70;99.90;;;;;;6206434;23;20355;-61
2021/12/06 08:30:12;;;;;;;39.00;14.82;;;4.60;99.90;;;;;;6208422;23;20526;-62
2021/12/06 08:32:38;;;;;;;41.22;16.35;;;4.70;99.90;;;;;;6207597;23;20020;-62
2021/12/06 08:35:05;;;;;;;42.63;14.95;;;4.60;99.90;;;;;;6207620;23;20016;-62
2021/12/06 08:37:31;;;;;;;35.85;14.88;;;4.70;99.90;;;;;;6206251;23;20479;-62
2021/12/06 08:39:57;;;;;;;37.95;14.82;;;4.80;99.90;;;;;;6208491;23;20013;-62
2021/12/06 08:42:23;;;;;;;35.70;13.85;;;4.80;99.90;;;;;;6206812;23;20016;-61
2021/12/06 08:44:49;;;;;;;29.80;14.07;;;4.70;99.90;;;;;;6208613;23;20047;-62
2021/12/06 08:47:16;;;;;;;37.47;14.10;;;4.70;99.90;;;;;;6208179;23;20013;-62
2021/12/06 08:49:42;;;;;;;26.55;11.65;;;4.70;99.90;;;;;;6206359;23;20047;-63
2021/12/06 08:52:08;;;;;;;34.42;12.57;;;4.80;99.90;;;;;;6208687;23;20315;-62
2021/12/06 08:54:33;;;;;;;28.38;13.05;;;4.80;99.90;;;;;;6207065;23;20059;-62
2021/12/06 08:57:03;;;;;;;33.47;13.88;;;4.70;99.90;;;;;;6208171;23;20782;-62
2021/12/06 08:59:29;;;;;;;29.30;13.93;;;4.70;99.90;;;;;;6207709;23;20102;-62
2021/12/06 09:01:57;;;;;;;31.33;13.63;;;4.70;99.90;;;;;;6208684;23;20017;-62
2021/12/06 09:04:28;;;;;;;33.50;13.80;;;4.70;99.90;;;;;;6205924;23;20008;-63
2021/12/06 09:06:54;;;;;;;32.97;13.82;;;4.70;99.90;;;;;;6206542;23;20012;-62
2021/12/06 09:09:21;;;;;;;46.88;15.75;;;4.70;99.90;;;;;;6207602;23;20324;-62
2021/12/06 09:11:48;;;;;;;34.75;14.60;;;4.80;99.90;;;;;;6208027;23;20012;-62
2021/12/06 09:14:15;;;;;;;32.72;14.63;;;4.80;99.90;;;;;;6208421;23;20770;-62
2021/12/06 09:16:42;;;;;;;37.67;15.48;;;4.60;99.90;;;;;;6205569;23;20020;-61
2021/12/06 09:19:09;;;;;;;33.67;15.15;;;4.60;99.90;;;;;;6206668;23;20351;-62
2021/12/06 09:21:37;;;;;;;38.17;16.60;;;4.60;99.90;;;;;;6205615;23;20012;-62
2021/12/06 09:24:09;;;;;;;40.25;15.00;;;4.60;99.90;;;;;;6206637;23;20012;-62
2021/12/06 09:26:37;;;;;;;29.45;13.90;;;4.50;99.90;;;;;;6204415;23;20060;-63
2021/12/06 09:29:03;;;;;;;36.92;15.50;;;4.50;99.90;;;;;;6206082;23;20463;-61
2021/12/06 09:31:29;;;;;;;40.17;15.43;;;4.60;99.90;;;;;;6207520;23;20518;-62
2021/12/06 09:33:55;;;;;;;38.33;16.33;;;4.50;99.90;;;;;;6207926;23;20016;-62
2021/12/06 09:36:22;;;;;;;45.45;17.10;;;4.50;99.90;;;;;;6206729;23;20036;-63
2021/12/06 09:38:48;;;;;;;43.67;15.93;;;4.60;99.90;;;;;;6206787;23;20458;-62
2021/12/06 09:41:25;;;;;;;43.97;17.52;;;4.50;99.90;;;;;;6207131;23;20020;-63
2021/12/06 09:43:53;;;;;;;45.72;17.48;;;4.50;99.90;;;;;;6207261;23;20447;-63
2021/12/06 09:46:19;;;;;;;49.13;17.70;;;4.60;99.90;;;;;;6205230;23;20447;-64
2021/12/06 09:48:46;;;;;;;47.85;19.00;;;4.60;99.90;;;;;;6208433;23;20459;-62
2021/12/06 09:51:18;;;;;;;52.63;19.58;;;4.60;99.90;;;;;;6208162;23;20451;-63
2021/12/06 09:53:46;;;;;;;53.75;21.23;;;4.70;99.90;;;;;;6207226;23;20019;-63
2021/12/06 09:56:17;;;;;;;60.15;22.35;;;4.70;99.90;;;;;;6207664;23;20028;-62
2021/12/06 09:58:44;;;;;;;53.72;21.02;;;4.70;99.90;;;;;;6207275;23;20043;-62
2021/12/06 10:01:15;;;;;;;58.13;21.63;;;4.70;99.90;;;;;;6208254;23;20016;-62
2021/12/06 10:03:41;;;;;;;52.60;19.90;;;4.80;99.90;;;;;;6207286;23;20394;-63
2021/12/06 10:06:07;;;;;;;52.40;20.25;;;4.80;99.90;;;;;;6207459;23;20020;-62
2021/12/06 10:08:38;;;;;;;61.17;21.10;;;4.70;99.90;;;;;;6207445;23;20062;-62
2021/12/06 10:11:07;;;;;;;55.67;21.63;;;4.70;99.90;;;;;;6208138;23;20016;-62
2021/12/06 10:13:39;;;;;;;62.80;21.58;;;4.70;99.90;;;;;;6204983;23;20087;-62
2021/12/06 10:16:05;;;;;;;62.38;22.42;;;4.70;99.90;;;;;;6207156;23;20020;-62
2021/12/06 10:18:31;;;;;;;59.97;21.23;;;4.70;99.90;;;;;;6206915;23;20023;-62
2021/12/06 10:20:57;;;;;;;64.00;21.48;;;4.70;99.90;;;;;;6206181;23;20012;-62
2021/12/06 10:23:23;;;;;;;63.28;21.27;;;4.70;99.90;;;;;;6206944;23;20111;-62
2021/12/06 10:25:52;;;;;;;62.03;21.10;;;4.70;99.90;;;;;;6207335;23;20031;-62
2021/12/06 10:28:19;;;;;;;54.72;20.85;;;4.70;99.90;;;;;;6206174;23;20051;-62
2021/12/06 10:30:52;;;;;;;51.33;19.55;;;4.70;99.90;;;;;;6207541;23;20012;-64
2021/12/06 10:33:20;;;;;;;52.17;18.83;;;4.70;99.90;;;;;;6204939;23;20016;-63
2021/12/06 10:35:53;;;;;;;57.28;20.08;;;4.70;99.90;;;;;;6203662;23;20016;-62
2021/12/06 10:38:53;;;;;;;67.43;21.73;;;4.80;99.90;;;;;;6204999;23;20579;-61
2021/12/06 10:41:29;;;;;;;48.43;17.23;;;4.80;99.90;;;;;;6188605;23;20037;-62
2021/12/06 10:44:04;;;;;;;49.33;17.90;;;4.80;99.90;;;;;;6198818;23;20070;-62
2021/12/06 10:46:30;;;;;;;51.33;18.15;;;4.80;99.90;;;;;;6203237;23;20012;-62
2021/12/06 10:48:59;;;;;;;45.85;16.35;;;4.90;99.90;;;;;;6204761;23;20016;-62
2021/12/06 10:51:26;;;;;;;38.88;14.70;;;4.90;99.90;;;;;;6203545;23;20589;-64
2021/12/06 10:54:01;;;;;;;41.08;15.95;;;4.90;99.90;;;;;;6204430;23;20012;-62
2021/12/06 10:56:41;;;;;;;37.88;15.93;;;5.00;99.90;;;;;;6202968;23;20024;-63
2021/12/06 10:59:22;;;;;;;34.60;13.63;;;5.10;99.90;;;;;;6204809;23;20039;-62
2021/12/06 11:01:51;;;;;;;33.22;14.27;;;5.10;99.90;;;;;;6202721;23;20009;-63
2021/12/06 11:04:20;;;;;;;32.55;12.98;;;5.20;99.90;;;;;;6203012;23;20449;-63
2021/12/06 11:06:50;;;;;;;32.08;13.75;;;5.20;99.90;;;;;;6202106;23;20023;-63
2021/12/06 11:09:22;;;;;;;30.53;13.97;;;5.20;99.90;;;;;;6204923;23;20023;-64
2021/12/06 11:11:52;;;;;;;29.15;12.07;;;5.20;99.90;;;;;;6203827;23;20236;-62
2021/12/06 11:14:22;;;;;;;29.73;11.63;;;5.20;99.90;;;;;;6202571;23;20008;-63
2021/12/06 11:16:55;;;;;;;32.03;11.45;;;5.20;99.90;;;;;;6203814;23;20035;-63
2021/12/06 11:19:23;;;;;;;34.67;13.10;;;5.30;99.90;;;;;;6199759;23;20099;-62
2021/12/06 11:21:56;;;;;;;26.67;11.27;;;5.30;99.90;;;;;;6202263;23;20074;-63
2021/12/06 11:24:39;;;;;;;27.30;12.00;;;5.30;99.90;;;;;;6201730;23;20054;-64
2021/12/06 11:27:10;;;;;;;29.27;10.73;;;5.30;99.90;;;;;;6203757;23;20441;-62
2021/12/06 11:29:35;;;;;;;29.52;11.55;;;5.30;99.90;;;;;;6202464;23;20458;-62
2021/12/06 11:32:07;;;;;;;31.50;12.80;;;5.40;99.90;;;;;;6201744;23;20012;-62
2021/12/06 11:34:47;;;;;;;31.73;12.32;;;5.30;99.90;;;;;;6202805;23;20028;-63
2021/12/06 11:37:25;;;;;;;30.75;13.63;;;5.40;99.90;;;;;;6204261;23;20108;-63
2021/12/06 11:40:03;;;;;;;29.90;12.73;;;5.40;99.90;;;;;;6204060;23;20348;-62
2021/12/06 11:42:28;;;;;;;26.50;11.93;;;5.40;99.90;;;;;;6203379;23;20458;-64
2021/12/06 11:44:54;;;;;;;33.17;13.30;;;5.40;99.90;;;;;;6205681;23;20040;-62
2021/12/06 11:47:20;;;;;;;29.10;12.00;;;5.50;99.90;;;;;;6202274;23;20016;-62
2021/12/06 11:49:53;;;;;;;30.52;12.82;;;5.50;99.90;;;;;;6204543;23;20024;-62
2021/12/06 11:52:23;;;;;;;34.70;13.25;;;5.50;99.90;;;;;;6204907;23;20013;-62
2021/12/06 11:54:55;;;;;;;29.20;11.77;;;5.50;99.90;;;;;;6206916;23;20121;-62
2021/12/06 11:57:31;;;;;;;29.48;12.48;;;5.50;99.90;;;;;;6205948;23;20017;-62
2021/12/06 12:00:01;;;;;;;30.40;12.18;;;5.50;99.90;;;;;;6206586;23;20012;-62
2021/12/06 12:02:35;;;;;;;26.93;9.70;;;5.60;99.90;;;;;;6206793;23;20725;-62
2021/12/06 12:05:08;;;;;;;30.38;13.15;;;5.60;99.90;;;;;;6207280;23;20017;-62
2021/12/06 12:08:09;;;;;;;37.20;13.27;;;5.60;99.90;;;;;;6206144;23;20013;-62
2021/12/06 12:10:44;;;;;;;38.28;14.93;;;5.60;99.90;;;;;;6205428;23;20022;-62
2021/12/06 12:13:13;;;;;;;39.42;14.10;;;5.50;99.90;;;;;;6207219;23;20017;-63
2021/12/06 12:15:40;;;;;;;38.25;14.02;;;5.50;99.90;;;;;;6205391;23;20855;-62
2021/12/06 12:18:06;;;;;;;33.78;13.35;;;5.50;99.90;;;;;;6207528;23;20637;-62
2021/12/06 12:20:35;;;;;;;31.60;12.02;;;5.40;99.90;;;;;;6205680;23;20017;-62
2021/12/06 12:23:05;;;;;;;33.28;13.85;;;5.40;99.90;;;;;;6204991;23;20023;-63
2021/12/06 12:25:36;;;;;;;35.45;14.30;;;5.40;99.90;;;;;;6205952;23;20016;-62
2021/12/06 12:30:39;;;;;;;33.05;13.45;;;5.40;99.90;;;;;;6206072;23;20067;-62
2021/12/06 12:33:07;;;;;;;33.60;14.57;;;5.30;99.90;;;;;;6207263;23;20012;-62
2021/12/06 12:35:36;;;;;;;30.88;12.98;;;5.30;99.90;;;;;;6205212;23;20040;-63
2021/12/06 12:38:03;;;;;;;27.20;11.48;;;5.30;99.90;;;;;;6207059;23;20009;-63
2021/12/06 12:40:44;;;;;;;24.67;10.07;;;5.30;99.90;;;;;;6205952;23;20012;-62
2021/12/06 12:43:14;;;;;;;;;;;5.30;99.90;;;;;;6205990;23;20443;-62
2021/12/06 12:45:50;;;;;;;23.48;9.13;;;5.20;99.90;;;;;;6203677;23;19935;-63
2021/12/06 12:48:22;;;;;;;22.73;9.45;;;5.20;99.90;;;;;;6207332;23;20019;-62
2021/12/06 12:51:07;;;;;;;22.48;9.95;;;5.10;99.90;;;;;;6206306;23;20016;-62
2021/12/06 12:54:05;;;;;;;25.48;10.63;;;5.00;99.90;;;;;;6205855;23;20031;-63
2021/12/06 12:56:41;;;;;;;26.73;9.77;;;5.00;99.90;;;;;;6180856;23;20795;-62